Time;durP1;ratioP1;P1;durP2;ratioP2;P2;SDS_P1;SDS_P2;PMS_P1;PMS_P2;Temp;Humidity;BMP_temperature;BMP_pressure;BME280_temperature;BME280_humidity;BME280_pressure;Samples;Min_cycle;Max_cycle;Signal;HPM_P1;HPM_P2
2023/12/27 00:02:04;;;;;;;0.00;0.00;;;4.60;85.10;;;;;;5062035;28;20068;-69
2023/12/27 00:04:30;;;;;;;0.00;0.00;;;4.60;85.30;;;;;;5067862;28;20782;-69
2023/12/27 00:06:59;;;;;;;0.00;0.00;;;4.60;85.30;;;;;;5067447;28;20048;-69
2023/12/27 00:09:24;;;;;;;0.00;0.00;;;4.60;85.40;;;;;;5066488;28;20099;-69
2023/12/27 00:11:50;;;;;;;0.10;0.10;;;4.60;85.50;;;;;;5067003;28;20076;-69
2023/12/27 00:14:15;;;;;;;0.00;0.00;;;4.60;85.50;;;;;;5067389;28;20050;-69
2023/12/27 00:16:41;;;;;;;0.00;0.00;;;4.50;85.50;;;;;;5063089;28;20036;-69
2023/12/27 00:19:07;;;;;;;0.00;0.00;;;4.50;85.60;;;;;;5054122;28;20044;-69
2023/12/27 00:21:33;;;;;;;0.00;0.00;;;4.50;85.70;;;;;;5049472;28;20048;-69
2023/12/27 00:23:58;;;;;;;0.00;0.00;;;4.50;85.80;;;;;;5049861;28;20695;-69
2023/12/27 00:26:24;;;;;;;0.00;0.00;;;4.50;86.00;;;;;;5049970;28;20370;-69
2023/12/27 00:28:49;;;;;;;0.00;0.00;;;4.60;86.30;;;;;;5064317;28;20040;-69
2023/12/27 00:31:15;;;;;;;0.00;0.00;;;4.60;86.30;;;;;;5067293;28;20049;-69
2023/12/27 00:33:41;;;;;;;0.00;0.00;;;4.60;86.40;;;;;;5055739;28;20060;-69
2023/12/27 00:36:08;;;;;;;0.00;0.00;;;4.60;86.70;;;;;;5060762;28;20059;-68
2023/12/27 00:38:35;;;;;;;0.00;0.00;;;4.60;86.70;;;;;;5063229;28;20173;-68
2023/12/27 00:41:03;;;;;;;0.00;0.00;;;4.70;86.70;;;;;;5056412;28;20044;-68
2023/12/27 00:43:29;;;;;;;0.00;0.00;;;4.70;86.80;;;;;;5054043;28;20702;-69
2023/12/27 00:45:54;;;;;;;0.00;0.00;;;4.70;86.80;;;;;;5052453;28;20123;-69
2023/12/27 00:48:20;;;;;;;0.00;0.00;;;4.70;86.70;;;;;;5048719;28;20275;-69
2023/12/27 00:50:45;;;;;;;0.00;0.00;;;4.70;86.80;;;;;;5049288;28;20053;-69
2023/12/27 00:53:11;;;;;;;0.00;0.00;;;4.70;86.70;;;;;;5062055;28;20114;-69
2023/12/27 00:55:37;;;;;;;0.20;0.20;;;4.70;86.70;;;;;;5067422;28;20766;-69
2023/12/27 00:58:03;;;;;;;0.10;0.10;;;4.70;86.60;;;;;;5067400;28;20036;-69
2023/12/27 01:00:28;;;;;;;0.00;0.00;;;4.80;86.70;;;;;;5066611;28;20035;-69
2023/12/27 01:02:54;;;;;;;0.05;0.05;;;4.60;86.70;;;;;;5066242;28;20111;-69
2023/12/27 01:05:20;;;;;;;0.00;0.00;;;4.70;86.70;;;;;;5067106;28;20055;-69
2023/12/27 01:07:45;;;;;;;0.00;0.00;;;4.70;86.70;;;;;;5066961;28;20414;-69
2023/12/27 01:10:11;;;;;;;0.00;0.00;;;4.70;86.70;;;;;;5057008;28;20047;-69
2023/12/27 01:12:37;;;;;;;0.10;0.10;;;4.70;86.80;;;;;;5066571;28;20044;-69
2023/12/27 01:15:03;;;;;;;0.00;0.00;;;4.70;86.90;;;;;;5048537;28;20040;-69
2023/12/27 01:17:29;;;;;;;0.00;0.00;;;4.70;86.90;;;;;;5066663;28;20055;-69
2023/12/27 01:19:54;;;;;;;0.00;0.00;;;4.70;86.90;;;;;;5061344;28;20399;-69
2023/12/27 01:22:20;;;;;;;0.00;0.00;;;4.60;86.80;;;;;;5066219;28;20048;-69
2023/12/27 01:24:45;;;;;;;0.00;0.00;;;4.60;86.90;;;;;;5061207;28;20448;-69
2023/12/27 01:27:11;;;;;;;0.00;0.00;;;4.60;86.90;;;;;;5045387;28;20049;-69
2023/12/27 01:29:36;;;;;;;0.08;0.08;;;4.60;86.90;;;;;;5048271;28;20131;-69
2023/12/27 01:32:02;;;;;;;0.05;0.05;;;4.60;86.80;;;;;;5066184;28;20048;-69
2023/12/27 01:34:28;;;;;;;0.10;0.10;;;4.60;86.80;;;;;;5045095;28;20788;-69
2023/12/27 01:36:53;;;;;;;0.00;0.00;;;4.60;86.80;;;;;;5057247;28;20082;-69
2023/12/27 01:39:19;;;;;;;0.00;0.00;;;4.60;86.70;;;;;;5047500;28;20049;-69
2023/12/27 01:41:45;;;;;;;0.00;0.00;;;4.50;86.70;;;;;;5065976;28;20107;-69
2023/12/27 01:44:11;;;;;;;0.00;0.00;;;4.50;86.80;;;;;;5065846;28;20657;-69
2023/12/27 01:46:37;;;;;;;0.00;0.00;;;4.50;86.90;;;;;;5066626;28;20052;-69
2023/12/27 01:49:03;;;;;;;0.00;0.00;;;4.60;87.00;;;;;;5059771;28;20114;-69
2023/12/27 01:51:30;;;;;;;0.00;0.00;;;4.60;87.00;;;;;;5066185;28;20060;-69
2023/12/27 01:54:00;;;;;;;0.00;0.00;;;4.60;87.00;;;;;;5065325;28;20487;-69
2023/12/27 01:56:26;;;;;;;0.00;0.00;;;4.60;86.90;;;;;;5066681;28;20458;-69
2023/12/27 01:58:52;;;;;;;0.30;0.30;;;4.60;86.90;;;;;;5048528;28;20567;-69
2023/12/27 02:01:18;;;;;;;0.00;0.00;;;4.60;86.90;;;;;;5051707;28;20056;-69
2023/12/27 02:03:43;;;;;;;0.00;0.00;;;4.60;86.90;;;;;;5058059;28;20040;-69
2023/12/27 02:06:09;;;;;;;0.00;0.00;;;4.60;86.80;;;;;;5070335;28;20123;-69
2023/12/27 02:08:35;;;;;;;0.00;0.00;;;4.50;86.80;;;;;;5067934;28;20162;-69
2023/12/27 02:11:01;;;;;;;0.08;0.08;;;4.50;86.80;;;;;;5062919;28;20831;-69
2023/12/27 02:13:27;;;;;;;0.00;0.00;;;4.50;86.70;;;;;;5051713;28;20044;-69
2023/12/27 02:15:53;;;;;;;0.00;0.00;;;4.50;86.70;;;;;;5070203;28;20041;-69
2023/12/27 02:18:20;;;;;;;0.00;0.00;;;4.40;86.60;;;;;;5069840;28;20648;-69
2023/12/27 02:20:46;;;;;;;0.00;0.00;;;4.40;86.60;;;;;;5067135;28;20135;-69
2023/12/27 02:23:17;;;;;;;0.00;0.00;;;4.30;86.60;;;;;;5070052;28;20109;-69
2023/12/27 02:25:43;;;;;;;0.00;0.00;;;4.40;86.60;;;;;;5069143;28;20655;-69
2023/12/27 02:28:09;;;;;;;0.00;0.00;;;4.30;86.70;;;;;;5070290;28;20490;-69
2023/12/27 02:30:36;;;;;;;0.05;0.05;;;4.30;86.50;;;;;;5057661;28;20158;-69
2023/12/27 02:33:02;;;;;;;0.00;0.00;;;4.30;86.70;;;;;;5065350;28;20458;-69
2023/12/27 02:35:27;;;;;;;0.00;0.00;;;4.30;86.70;;;;;;5066550;28;20076;-69
2023/12/27 02:37:54;;;;;;;0.00;0.00;;;4.30;86.70;;;;;;5067630;28;20047;-69
2023/12/27 02:40:19;;;;;;;0.00;0.00;;;4.30;86.80;;;;;;5057092;28;20499;-69
2023/12/27 02:42:45;;;;;;;0.00;0.00;;;4.30;86.80;;;;;;5068539;28;20040;-69
2023/12/27 02:45:10;;;;;;;0.00;0.00;;;4.30;86.80;;;;;;5069847;28;20040;-69
2023/12/27 02:47:36;;;;;;;0.00;0.00;;;4.40;86.90;;;;;;5051901;28;20037;-69
2023/12/27 02:50:03;;;;;;;0.00;0.00;;;4.30;86.90;;;;;;5066137;28;20069;-69
2023/12/27 02:52:28;;;;;;;0.00;0.00;;;4.30;86.90;;;;;;5049951;28;20056;-69
2023/12/27 02:54:55;;;;;;;0.00;0.00;;;4.20;86.80;;;;;;5050527;28;20589;-69
2023/12/27 02:57:21;;;;;;;0.00;0.00;;;4.20;86.80;;;;;;5068183;28;20044;-69
2023/12/27 02:59:47;;;;;;;0.00;0.00;;;4.20;86.90;;;;;;5069372;28;20044;-69
2023/12/27 03:02:12;;;;;;;0.00;0.00;;;4.20;86.90;;;;;;5051119;28;20106;-69
2023/12/27 03:04:38;;;;;;;0.00;0.00;;;4.20;86.80;;;;;;5049329;28;20538;-69
2023/12/27 03:07:04;;;;;;;0.00;0.00;;;4.10;86.80;;;;;;5063507;28;20553;-69
2023/12/27 03:09:29;;;;;;;0.10;0.10;;;4.20;86.90;;;;;;5069415;28;20802;-69
2023/12/27 03:11:56;;;;;;;0.13;0.13;;;4.20;86.90;;;;;;5068436;28;20106;-69
2023/12/27 03:14:22;;;;;;;0.00;0.00;;;4.20;86.90;;;;;;5069458;28;20402;-69
2023/12/27 03:16:48;;;;;;;0.00;0.00;;;4.10;86.70;;;;;;5058743;28;20044;-69
2023/12/27 03:19:13;;;;;;;0.10;0.10;;;4.10;86.70;;;;;;5057493;28;20047;-69
2023/12/27 03:21:39;;;;;;;0.00;0.00;;;4.00;87.00;;;;;;5061789;28;20045;-69
2023/12/27 03:24:05;;;;;;;0.00;0.00;;;4.10;86.90;;;;;;5047953;28;20049;-69
2023/12/27 03:26:31;;;;;;;0.00;0.00;;;4.10;87.00;;;;;;5050668;28;20048;-69
2023/12/27 03:28:57;;;;;;;0.00;0.00;;;4.00;86.80;;;;;;5067501;28;20044;-69
2023/12/27 03:31:28;;;;;;;0.00;0.00;;;4.10;87.00;;;;;;5068703;28;20048;-69
2023/12/27 03:33:57;;;;;;;0.00;0.00;;;4.10;86.90;;;;;;5067763;28;20037;-69
2023/12/27 03:36:24;;;;;;;0.00;0.00;;;4.00;86.90;;;;;;5067304;28;20121;-69
2023/12/27 03:38:50;;;;;;;0.00;0.00;;;4.00;86.90;;;;;;5067652;28;20460;-69
2023/12/27 03:41:16;;;;;;;0.00;0.00;;;4.00;86.90;;;;;;5063967;28;20053;-70
2023/12/27 03:43:41;;;;;;;0.00;0.00;;;3.90;86.80;;;;;;5056878;28;20127;-70
2023/12/27 03:46:07;;;;;;;0.00;0.00;;;3.90;86.90;;;;;;5063081;28;20398;-70
2023/12/27 03:48:33;;;;;;;0.00;0.00;;;3.90;87.00;;;;;;5065064;28;20044;-70
2023/12/27 03:50:58;;;;;;;0.10;0.10;;;4.00;87.00;;;;;;5050435;28;20053;-70
2023/12/27 03:53:24;;;;;;;0.00;0.00;;;3.90;87.00;;;;;;5067500;28;20040;-70
2023/12/27 03:55:50;;;;;;;0.10;0.10;;;3.90;86.90;;;;;;5066790;28;20387;-70
2023/12/27 03:58:15;;;;;;;0.00;0.00;;;3.90;87.00;;;;;;5048607;28;20463;-70
2023/12/27 04:00:41;;;;;;;0.10;0.10;;;3.90;87.00;;;;;;5066018;28;20051;-70
2023/12/27 04:03:06;;;;;;;0.20;0.20;;;3.90;87.00;;;;;;5050850;28;20102;-69
2023/12/27 04:05:32;;;;;;;0.10;0.10;;;3.90;87.10;;;;;;5050104;28;20048;-70
2023/12/27 04:07:57;;;;;;;0.00;0.00;;;4.00;87.20;;;;;;5063282;28;20044;-69
2023/12/27 04:10:25;;;;;;;0.00;0.00;;;4.00;87.20;;;;;;5050552;28;20383;-69
2023/12/27 04:12:51;;;;;;;0.00;0.00;;;4.00;87.20;;;;;;5050561;28;20053;-69
2023/12/27 04:15:17;;;;;;;0.00;0.00;;;4.00;87.20;;;;;;5049951;28;20613;-69
2023/12/27 04:17:42;;;;;;;0.00;0.00;;;4.10;87.30;;;;;;5048625;28;20040;-69
2023/12/27 04:20:09;;;;;;;0.00;0.00;;;4.00;87.20;;;;;;5060856;28;20093;-69
2023/12/27 04:22:34;;;;;;;0.00;0.00;;;4.10;87.20;;;;;;5067287;28;20418;-69
2023/12/27 04:25:02;;;;;;;0.00;0.00;;;4.00;87.20;;;;;;5066853;28;20033;-69
2023/12/27 04:27:28;;;;;;;0.00;0.00;;;4.00;87.30;;;;;;5067042;28;20182;-69
2023/12/27 04:29:54;;;;;;;0.00;0.00;;;4.00;87.30;;;;;;5049202;28;20048;-69
2023/12/27 04:32:20;;;;;;;0.00;0.00;;;4.00;87.40;;;;;;5067678;28;20047;-69
2023/12/27 04:34:45;;;;;;;0.00;0.00;;;4.10;87.40;;;;;;5067192;28;20089;-69
2023/12/27 04:37:11;;;;;;;0.00;0.00;;;4.10;87.40;;;;;;5048719;28;20037;-69
2023/12/27 04:39:36;;;;;;;0.00;0.00;;;4.10;87.40;;;;;;5066315;28;20040;-69
2023/12/27 04:42:02;;;;;;;0.00;0.00;;;4.10;87.40;;;;;;5061338;28;20065;-70
2023/12/27 04:44:28;;;;;;;0.00;0.00;;;4.10;87.40;;;;;;5048028;28;20735;-69
2023/12/27 04:46:54;;;;;;;0.00;0.00;;;4.10;87.40;;;;;;5066820;28;20055;-69
2023/12/27 04:49:19;;;;;;;0.00;0.00;;;4.10;87.50;;;;;;5049457;28;20055;-69
2023/12/27 04:51:46;;;;;;;0.00;0.00;;;4.00;87.40;;;;;;5066206;28;20071;-69
2023/12/27 04:54:12;;;;;;;0.30;0.30;;;4.10;87.50;;;;;;5066559;28;20418;-69
2023/12/27 04:56:37;;;;;;;0.00;0.00;;;4.10;87.40;;;;;;5066899;28;20043;-69
2023/12/27 04:59:03;;;;;;;0.00;0.00;;;4.00;87.40;;;;;;5059968;28;20101;-69
2023/12/27 05:01:29;;;;;;;0.00;0.00;;;4.00;87.40;;;;;;5066634;28;20105;-69
2023/12/27 05:03:54;;;;;;;0.00;0.00;;;4.10;87.40;;;;;;5066280;28;20044;-69
2023/12/27 05:06:20;;;;;;;0.00;0.00;;;4.10;87.50;;;;;;5066720;28;20447;-70
2023/12/27 05:08:45;;;;;;;0.00;0.00;;;4.10;87.60;;;;;;5066636;28;20084;-68
2023/12/27 05:11:12;;;;;;;0.00;0.00;;;4.10;87.60;;;;;;5062682;28;20105;-68
2023/12/27 05:13:38;;;;;;;0.00;0.00;;;4.20;87.60;;;;;;5067062;28;20476;-68
2023/12/27 05:16:10;;;;;;;0.00;0.00;;;4.20;87.60;;;;;;5053390;28;20053;-68
2023/12/27 05:18:37;;;;;;;0.00;0.00;;;4.20;87.60;;;;;;5066895;28;20081;-68
2023/12/27 05:21:03;;;;;;;0.00;0.00;;;4.20;87.60;;;;;;5065656;28;20041;-68
2023/12/27 05:23:28;;;;;;;0.00;0.00;;;4.30;87.60;;;;;;5048883;28;20117;-68
2023/12/27 05:25:54;;;;;;;0.00;0.00;;;4.20;87.50;;;;;;5047999;28;20139;-68
2023/12/27 05:28:20;;;;;;;0.00;0.00;;;4.20;87.60;;;;;;5065868;28;20608;-68
2023/12/27 05:30:45;;;;;;;0.00;0.00;;;4.30;87.70;;;;;;5066056;28;20094;-68
2023/12/27 05:33:11;;;;;;;0.00;0.00;;;4.30;87.70;;;;;;5066145;28;20102;-68
2023/12/27 05:35:36;;;;;;;0.00;0.00;;;4.30;87.80;;;;;;5059762;28;20518;-68
2023/12/27 05:38:02;;;;;;;0.03;0.03;;;4.30;87.70;;;;;;5060461;28;20047;-68
2023/12/27 05:40:28;;;;;;;0.00;0.00;;;4.30;87.80;;;;;;5058366;28;20720;-68
2023/12/27 05:42:53;;;;;;;0.10;0.10;;;4.20;87.70;;;;;;5062322;28;20428;-68
2023/12/27 05:45:19;;;;;;;0.00;0.00;;;4.20;87.80;;;;;;5047457;28;20053;-68
2023/12/27 05:47:44;;;;;;;0.00;0.00;;;4.20;87.80;;;;;;5065832;28;20505;-68
2023/12/27 05:50:10;;;;;;;0.43;0.43;;;4.20;87.70;;;;;;5047668;28;20105;-68
2023/12/27 05:52:37;;;;;;;0.00;0.00;;;4.20;87.80;;;;;;5065287;28;20523;-68
2023/12/27 05:55:04;;;;;;;0.00;0.00;;;4.20;87.80;;;;;;5064778;28;20080;-69
2023/12/27 05:57:29;;;;;;;0.00;0.00;;;4.30;87.80;;;;;;5047118;28;20057;-69
2023/12/27 05:59:55;;;;;;;0.00;0.00;;;4.30;87.90;;;;;;5065345;28;20055;-69
2023/12/27 06:02:20;;;;;;;0.00;0.00;;;4.30;87.90;;;;;;5065835;28;20056;-69
2023/12/27 06:04:46;;;;;;;0.00;0.00;;;4.30;87.90;;;;;;5062881;28;20048;-69
2023/12/27 06:07:12;;;;;;;0.08;0.08;;;4.30;88.00;;;;;;5048644;28;20033;-69
2023/12/27 06:09:38;;;;;;;0.00;0.00;;;4.30;87.90;;;;;;5062326;28;20041;-69
2023/12/27 06:12:05;;;;;;;0.00;0.00;;;4.30;87.90;;;;;;5063737;28;20048;-69
2023/12/27 06:14:30;;;;;;;0.00;0.00;;;4.40;88.00;;;;;;5064654;28;20471;-69
2023/12/27 06:16:56;;;;;;;0.00;0.00;;;4.40;88.00;;;;;;5063235;28;20041;-69
2023/12/27 06:19:21;;;;;;;0.25;0.25;;;4.40;88.10;;;;;;5056638;28;20060;-69
2023/12/27 06:21:47;;;;;;;0.00;0.00;;;4.40;88.00;;;;;;5055933;28;20068;-70
2023/12/27 06:24:13;;;;;;;0.00;0.00;;;4.30;88.00;;;;;;5043317;28;20037;-70
2023/12/27 06:26:38;;;;;;;0.00;0.00;;;4.30;87.90;;;;;;5065666;28;20068;-69
2023/12/27 06:29:04;;;;;;;0.00;0.00;;;4.40;88.10;;;;;;5064606;28;20155;-69
2023/12/27 06:31:30;;;;;;;0.00;0.00;;;4.40;88.10;;;;;;5063390;28;20055;-69
2023/12/27 06:33:56;;;;;;;0.03;0.03;;;4.40;88.10;;;;;;5064180;28;20036;-69
2023/12/27 06:36:22;;;;;;;0.00;0.00;;;4.40;88.10;;;;;;5057615;28;20049;-70
2023/12/27 06:38:48;;;;;;;0.00;0.00;;;4.40;88.10;;;;;;5063642;28;20048;-69
2023/12/27 06:41:16;;;;;;;0.00;0.00;;;4.40;88.10;;;;;;5059277;28;20389;-69
2023/12/27 06:43:43;;;;;;;0.00;0.00;;;4.40;88.00;;;;;;5046823;28;20052;-70
2023/12/27 06:46:09;;;;;;;0.00;0.00;;;4.40;88.20;;;;;;5067658;28;20398;-70
2023/12/27 06:48:34;;;;;;;0.00;0.00;;;4.30;88.30;;;;;;5061588;28;20037;-69
2023/12/27 06:51:03;;;;;;;0.00;0.00;;;4.40;88.50;;;;;;5068237;28;20052;-69
2023/12/27 06:53:29;;;;;;;0.00;0.00;;;4.40;88.60;;;;;;5068922;28;20097;-69
2023/12/27 06:55:55;;;;;;;0.00;0.00;;;4.40;88.50;;;;;;5069871;28;20083;-69
2023/12/27 06:58:21;;;;;;;0.08;0.08;;;4.50;88.40;;;;;;5066743;28;20072;-67
2023/12/27 07:00:46;;;;;;;0.00;0.00;;;4.40;88.40;;;;;;5069065;28;20819;-68
2023/12/27 07:03:12;;;;;;;0.00;0.00;;;4.50;88.40;;;;;;5052256;28;20410;-67
2023/12/27 07:05:38;;;;;;;0.00;0.00;;;4.50;88.50;;;;;;5052043;28;20154;-67
2023/12/27 07:08:04;;;;;;;0.00;0.00;;;4.50;88.50;;;;;;5068460;28;20099;-68
2023/12/27 07:10:30;;;;;;;0.43;0.43;;;4.50;88.40;;;;;;5068974;28;20048;-68
2023/12/27 07:12:55;;;;;;;0.00;0.00;;;4.50;88.40;;;;;;5055487;28;20052;-68
2023/12/27 07:15:21;;;;;;;0.00;0.00;;;4.50;88.50;;;;;;5052801;28;20783;-68
2023/12/27 07:17:47;;;;;;;0.00;0.00;;;4.50;88.60;;;;;;5065350;28;20403;-69
2023/12/27 07:20:12;;;;;;;0.00;0.00;;;4.50;88.60;;;;;;5059840;28;20053;-68
2023/12/27 07:22:38;;;;;;;0.00;0.00;;;4.60;88.60;;;;;;5065305;28;20048;-68
2023/12/27 07:25:04;;;;;;;0.00;0.00;;;4.60;88.70;;;;;;5065986;28;20214;-69
2023/12/27 07:27:30;;;;;;;0.10;0.10;;;4.60;88.70;;;;;;5068164;28;20038;-69
2023/12/27 07:29:56;;;;;;;0.00;0.00;;;4.60;88.70;;;;;;5062793;28;20057;-70
2023/12/27 07:32:22;;;;;;;0.00;0.00;;;4.70;88.60;;;;;;5066666;28;20098;-68
2023/12/27 07:34:47;;;;;;;0.20;0.20;;;4.60;88.50;;;;;;5064891;28;20055;-69
2023/12/27 07:37:13;;;;;;;0.00;0.00;;;4.60;88.60;;;;;;5068027;28;20037;-69
2023/12/27 07:39:40;;;;;;;0.00;0.00;;;4.70;88.60;;;;;;5065861;28;20110;-68
2023/12/27 07:42:06;;;;;;;0.00;0.00;;;4.70;88.50;;;;;;5066408;28;20044;-69
2023/12/27 07:44:31;;;;;;;0.00;0.00;;;4.70;88.50;;;;;;5037195;28;20045;-68
2023/12/27 07:46:57;;;;;;;0.05;0.05;;;4.70;88.60;;;;;;5066475;28;20037;-68
2023/12/27 07:49:24;;;;;;;0.00;0.00;;;4.70;88.50;;;;;;5065532;28;20040;-68
2023/12/27 07:51:49;;;;;;;0.00;0.00;;;4.70;88.60;;;;;;5048000;28;20044;-68
2023/12/27 07:54:15;;;;;;;0.00;0.00;;;4.70;88.70;;;;;;5065426;28;20059;-68
2023/12/27 07:56:41;;;;;;;0.00;0.00;;;4.80;88.80;;;;;;5065128;28;20422;-68
2023/12/27 07:59:07;;;;;;;0.00;0.00;;;4.80;88.80;;;;;;5063707;28;20099;-68
2023/12/27 08:01:33;;;;;;;0.10;0.10;;;4.80;88.80;;;;;;5044879;28;20064;-68
2023/12/27 08:03:59;;;;;;;0.00;0.00;;;4.80;88.80;;;;;;5062681;28;20043;-68
2023/12/27 08:06:26;;;;;;;0.00;0.00;;;4.80;88.90;;;;;;5065643;28;20044;-68
2023/12/27 08:08:52;;;;;;;0.03;0.03;;;4.90;88.90;;;;;;5064924;28;20053;-68
2023/12/27 08:11:18;;;;;;;0.20;0.20;;;4.90;89.10;;;;;;5064311;28;20056;-68
2023/12/27 08:13:44;;;;;;;0.10;0.10;;;4.90;89.10;;;;;;5066456;28;20036;-67
2023/12/27 08:16:09;;;;;;;0.73;0.73;;;5.00;88.90;;;;;;5063846;28;20051;-69
2023/12/27 08:18:35;;;;;;;0.00;0.00;;;5.00;89.00;;;;;;5061984;28;20040;-67
2023/12/27 08:21:01;;;;;;;0.00;0.00;;;5.00;88.90;;;;;;5062208;28;20060;-69
2023/12/27 08:23:26;;;;;;;0.20;0.20;;;5.10;89.10;;;;;;5058450;28;20115;-67
2023/12/27 08:25:52;;;;;;;0.00;0.00;;;5.10;89.10;;;;;;5062383;28;20041;-66
2023/12/27 08:28:18;;;;;;;0.00;0.00;;;5.10;89.00;;;;;;5061098;28;20044;-66
2023/12/27 08:30:44;;;;;;;0.03;0.03;;;5.30;89.00;;;;;;5060057;28;20082;-66
2023/12/27 08:33:10;;;;;;;0.05;0.05;;;5.30;89.10;;;;;;5064527;28;20052;-66
2023/12/27 08:35:36;;;;;;;0.00;0.00;;;5.30;89.10;;;;;;5060877;28;20055;-66
2023/12/27 08:38:02;;;;;;;0.00;0.00;;;5.30;89.00;;;;;;5065836;28;20032;-67
2023/12/27 08:40:28;;;;;;;0.00;0.00;;;5.40;89.10;;;;;;5062939;28;20044;-67
2023/12/27 08:42:54;;;;;;;0.00;0.00;;;5.40;88.90;;;;;;5046954;28;20044;-67
2023/12/27 08:45:20;;;;;;;0.00;0.00;;;5.30;88.90;;;;;;5046202;28;20084;-67
2023/12/27 08:47:46;;;;;;;0.00;0.00;;;5.40;89.00;;;;;;5061173;28;20076;-67
2023/12/27 08:50:12;;;;;;;0.00;0.00;;;5.50;89.00;;;;;;5065132;28;20057;-67
2023/12/27 08:52:39;;;;;;;0.00;0.00;;;5.50;88.90;;;;;;5064960;28;20071;-67
2023/12/27 08:55:10;;;;;;;0.00;0.00;;;5.50;88.80;;;;;;5063957;28;20055;-67
2023/12/27 08:57:37;;;;;;;0.00;0.00;;;5.50;88.90;;;;;;5060775;28;20044;-67
2023/12/27 09:00:05;;;;;;;0.00;0.00;;;5.50;88.80;;;;;;5063202;28;20478;-67
2023/12/27 09:02:31;;;;;;;0.00;0.00;;;5.60;88.70;;;;;;5045508;28;20110;-69
2023/12/27 09:04:56;;;;;;;0.10;0.10;;;5.60;89.20;;;;;;5063780;28;20045;-68
2023/12/27 09:07:22;;;;;;;0.10;0.10;;;5.60;88.90;;;;;;5065331;28;20076;-68
2023/12/27 09:09:48;;;;;;;0.00;0.00;;;5.60;88.80;;;;;;5063423;28;20395;-69
2023/12/27 09:12:13;;;;;;;0.05;0.05;;;5.70;88.70;;;;;;5065631;28;20044;-68
2023/12/27 09:14:39;;;;;;;0.00;0.00;;;5.70;88.70;;;;;;5049640;28;20451;-68
2023/12/27 09:17:05;;;;;;;0.10;0.10;;;5.70;88.70;;;;;;5057859;28;20457;-68
2023/12/27 09:19:31;;;;;;;0.08;0.08;;;5.70;88.70;;;;;;5047373;28;20494;-69
2023/12/27 09:21:57;;;;;;;0.00;0.00;;;5.70;88.70;;;;;;5046500;28;20074;-71
2023/12/27 09:24:22;;;;;;;0.00;0.00;;;5.70;88.70;;;;;;5055059;28;20050;-70
2023/12/27 09:26:48;;;;;;;0.17;0.17;;;5.80;88.80;;;;;;5063848;28;20399;-70
2023/12/27 09:29:15;;;;;;;0.03;0.03;;;5.80;88.80;;;;;;5054453;28;20050;-70
2023/12/27 09:31:41;;;;;;;0.00;0.00;;;5.80;88.70;;;;;;5065261;28;20090;-70
2023/12/27 09:34:07;;;;;;;0.00;0.00;;;5.80;88.70;;;;;;5063743;28;20044;-70
2023/12/27 09:36:32;;;;;;;0.00;0.00;;;5.80;88.70;;;;;;5052130;28;20036;-70
2023/12/27 09:38:59;;;;;;;0.00;0.00;;;5.80;88.70;;;;;;5070784;28;20049;-70
2023/12/27 09:41:24;;;;;;;0.00;0.00;;;5.70;88.60;;;;;;5064819;28;20040;-70
2023/12/27 09:43:53;;;;;;;0.52;0.52;;;5.70;88.60;;;;;;5064198;28;20047;-70
2023/12/27 09:46:20;;;;;;;0.00;0.00;;;5.70;88.70;;;;;;5064680;28;20059;-70
2023/12/27 09:48:46;;;;;;;0.00;0.00;;;5.80;88.70;;;;;;5065575;28;20036;-70
2023/12/27 09:51:12;;;;;;;0.00;0.00;;;5.80;88.70;;;;;;5064583;28;20059;-69
2023/12/27 09:53:40;;;;;;;0.10;0.10;;;5.80;88.70;;;;;;5065561;28;20175;-70
2023/12/27 09:56:07;;;;;;;0.00;0.00;;;5.80;88.70;;;;;;5048577;28;20052;-70
2023/12/27 09:58:35;;;;;;;0.10;0.10;;;5.90;88.70;;;;;;5065088;28;20086;-67
2023/12/27 10:01:03;;;;;;;0.00;0.00;;;5.90;88.70;;;;;;5047571;28;20044;-69
2023/12/27 10:03:37;;;;;;;0.00;0.00;;;5.90;88.80;;;;;;5065056;28;20048;-69
2023/12/27 10:06:36;;;;;;;0.00;0.00;;;5.90;88.80;;;;;;5060033;28;20203;-69
2023/12/27 10:09:03;;;;;;;3.40;3.10;;;6.00;88.90;;;;;;5063250;28;20151;-68
2023/12/27 10:11:30;;;;;;;0.05;0.05;;;6.00;88.70;;;;;;5063418;28;20090;-75
2023/12/27 10:13:56;;;;;;;0.30;0.30;;;6.10;88.80;;;;;;5060282;28;20461;-69
2023/12/27 10:16:22;;;;;;;0.10;0.10;;;6.10;89.20;;;;;;5062157;28;20048;-68
2023/12/27 10:18:47;;;;;;;0.43;0.43;;;6.10;89.00;;;;;;5062121;28;20102;-70
2023/12/27 10:21:14;;;;;;;0.00;0.00;;;6.10;88.80;;;;;;5065829;28;20032;-68
2023/12/27 10:23:40;;;;;;;0.00;0.00;;;6.10;89.10;;;;;;5065526;28;20373;-70
2023/12/27 10:26:06;;;;;;;0.00;0.00;;;6.10;89.00;;;;;;5065901;28;20094;-69
2023/12/27 10:28:32;;;;;;;0.10;0.10;;;6.10;88.90;;;;;;5065035;28;20040;-69
2023/12/27 10:30:57;;;;;;;0.03;0.03;;;6.10;89.20;;;;;;5067940;28;20508;-69
2023/12/27 10:33:23;;;;;;;0.00;0.00;;;6.10;89.00;;;;;;5064974;28;20887;-69
2023/12/27 10:35:49;;;;;;;4.47;1.45;;;6.10;89.10;;;;;;5067342;28;20518;-69
2023/12/27 10:38:16;;;;;;;0.00;0.00;;;6.10;89.20;;;;;;5068131;28;20506;-69
2023/12/27 10:40:41;;;;;;;0.10;0.10;;;6.10;89.30;;;;;;5066740;28;20202;-69
2023/12/27 10:43:08;;;;;;;0.00;0.00;;;6.00;89.40;;;;;;5066528;28;20048;-69
2023/12/27 10:45:35;;;;;;;0.00;0.00;;;6.00;89.50;;;;;;5067847;28;20098;-69
2023/12/27 10:48:06;;;;;;;0.00;0.00;;;6.10;89.60;;;;;;5067425;28;20047;-69
2023/12/27 10:50:33;;;;;;;0.10;0.10;;;6.10;89.60;;;;;;5045199;28;20172;-69
2023/12/27 10:53:03;;;;;;;0.00;0.00;;;6.00;89.70;;;;;;5062995;28;20041;-69
2023/12/27 10:55:30;;;;;;;0.00;0.00;;;6.00;90.00;;;;;;5066394;28;20109;-69
2023/12/27 10:57:56;;;;;;;0.70;0.70;;;6.10;89.80;;;;;;5065630;28;20033;-68
2023/12/27 11:00:23;;;;;;;0.00;0.00;;;6.10;89.90;;;;;;5063482;28;20171;-70
2023/12/27 11:02:50;;;;;;;0.05;0.05;;;6.10;89.90;;;;;;5060837;28;20071;-70
2023/12/27 11:05:27;;;;;;;0.00;0.00;;;6.10;89.80;;;;;;5064515;28;20069;-70
2023/12/27 11:07:54;;;;;;;0.00;0.00;;;6.10;89.70;;;;;;5063231;28;20036;-69
2023/12/27 11:10:23;;;;;;;0.20;0.20;;;6.10;89.90;;;;;;5043718;28;20068;-69
2023/12/27 11:12:49;;;;;;;0.00;0.00;;;6.10;90.00;;;;;;5064972;28;20089;-69
2023/12/27 11:15:16;;;;;;;0.05;0.05;;;6.10;90.20;;;;;;5066392;28;20182;-69
2023/12/27 11:17:42;;;;;;;0.00;0.00;;;6.10;90.40;;;;;;5064849;28;20083;-70
2023/12/27 11:20:10;;;;;;;0.10;0.10;;;6.10;90.80;;;;;;5066475;28;20171;-70
2023/12/27 11:22:35;;;;;;;0.28;0.28;;;6.10;90.60;;;;;;5067741;28;20051;-69
2023/12/27 11:25:01;;;;;;;1.85;1.65;;;6.00;91.00;;;;;;5063053;28;20049;-69
2023/12/27 11:27:27;;;;;;;0.00;0.00;;;6.00;91.10;;;;;;5064755;28;20045;-69
2023/12/27 11:29:54;;;;;;;0.00;0.00;;;6.10;91.10;;;;;;5064675;28;20048;-69
2023/12/27 11:32:20;;;;;;;0.00;0.00;;;6.00;91.10;;;;;;5064299;28;20043;-68
2023/12/27 11:34:46;;;;;;;0.00;0.00;;;6.00;91.10;;;;;;5066611;28;20045;-69
2023/12/27 11:37:16;;;;;;;0.00;0.00;;;6.00;91.50;;;;;;5064462;28;20464;-70
2023/12/27 11:39:48;;;;;;;0.73;0.73;;;6.10;91.40;;;;;;5066248;28;20129;-70
2023/12/27 11:42:16;;;;;;;;;;;6.00;91.40;;;;;;5065622;28;20059;-70
2023/12/27 11:44:49;;;;;;;0.03;0.03;;;6.10;91.70;;;;;;5063686;28;20011;-70
2023/12/27 11:47:20;;;;;;;0.10;0.10;;;6.10;91.70;;;;;;5067550;28;20093;-70
2023/12/27 11:50:13;;;;;;;0.10;0.10;;;6.00;92.00;;;;;;5063359;28;20092;-70
2023/12/27 11:52:45;;;;;;;0.10;0.10;;;6.10;92.40;;;;;;5068690;28;20110;-71
2023/12/27 11:55:20;;;;;;;0.00;0.00;;;6.00;92.50;;;;;;5070616;28;20132;-71
2023/12/27 11:57:46;;;;;;;0.00;0.00;;;6.00;92.60;;;;;;5060239;28;20120;-71
2023/12/27 12:00:13;;;;;;;0.00;0.00;;;6.10;92.50;;;;;;5066171;28;20045;-70
2023/12/27 12:02:47;;;;;;;0.00;0.00;;;6.10;92.40;;;;;;5061180;28;20439;-68
2023/12/27 12:05:50;;;;;;;0.08;0.08;;;6.10;92.30;;;;;;5061633;28;20466;-71
2023/12/27 12:08:18;;;;;;;0.75;0.75;;;6.20;92.30;;;;;;5064658;28;20826;-71
2023/12/27 12:11:07;;;;;;;0.00;0.00;;;6.10;92.30;;;;;;5063503;28;20084;-71
2023/12/27 12:13:38;;;;;;;0.00;0.00;;;6.20;92.60;;;;;;5047847;28;20083;-70
2023/12/27 12:16:05;;;;;;;0.55;0.50;;;6.10;92.90;;;;;;5062412;28;20051;-70
2023/12/27 12:18:33;;;;;;;0.00;0.00;;;6.20;93.10;;;;;;5062197;28;20128;-71
2023/12/27 12:20:58;;;;;;;0.00;0.00;;;6.20;93.10;;;;;;5058789;28;20051;-70
2023/12/27 12:23:24;;;;;;;0.10;0.10;;;6.20;93.10;;;;;;5065532;28;20048;-71
2023/12/27 12:25:50;;;;;;;0.10;0.10;;;6.20;93.00;;;;;;5063983;28;20052;-71
2023/12/27 12:28:16;;;;;;;0.00;0.00;;;6.30;93.20;;;;;;5065854;28;20033;-71
2023/12/27 12:30:46;;;;;;;0.10;0.10;;;6.30;93.30;;;;;;5066613;28;20040;-71
2023/12/27 12:33:12;;;;;;;0.00;0.00;;;6.40;93.30;;;;;;5066839;28;20044;-70
2023/12/27 12:35:39;;;;;;;0.00;0.00;;;6.40;93.20;;;;;;5066726;28;20048;-71
2023/12/27 12:38:05;;;;;;;0.10;0.10;;;6.30;93.30;;;;;;5029361;28;20103;-70
2023/12/27 12:40:31;;;;;;;0.38;0.38;;;6.40;93.50;;;;;;5063716;28;20507;-69
2023/12/27 12:42:57;;;;;;;0.47;0.47;;;6.40;93.50;;;;;;5065746;28;20039;-70
2023/12/27 12:45:23;;;;;;;0.10;0.10;;;6.50;93.60;;;;;;5065017;28;20194;-70
2023/12/27 12:47:50;;;;;;;0.00;0.00;;;6.50;93.50;;;;;;5068828;28;20151;-69
2023/12/27 12:50:18;;;;;;;0.10;0.10;;;6.50;93.50;;;;;;5065527;28;20106;-69
2023/12/27 12:52:45;;;;;;;0.30;0.30;;;6.60;93.50;;;;;;5065190;28;20044;-69
2023/12/27 12:55:11;;;;;;;0.22;0.22;;;6.60;93.60;;;;;;5046003;28;20495;-70